createdAt,value
2023-02-07T00:01:38.846Z,-6.80
2023-02-07T00:04:32.770Z,-6.70
2023-02-07T00:07:33.346Z,-6.80
2023-02-07T00:10:46.559Z,-6.80
2023-02-07T00:13:27.747Z,-6.80
2023-02-07T00:16:29.795Z,-6.60
2023-02-07T00:19:34.709Z,-6.40
2023-02-07T00:26:39.944Z,-6.10
2023-02-07T00:30:00.738Z,-6.00
2023-02-07T00:32:28.833Z,-6.00
2023-02-07T00:34:53.042Z,-5.90
2023-02-07T00:37:40.553Z,-5.90
2023-02-07T00:40:20.568Z,-6.00
2023-02-07T00:42:49.814Z,-5.90
2023-02-07T00:45:29.410Z,-5.90
2023-02-07T00:51:25.452Z,-6.00
2023-02-07T01:04:05.821Z,-6.10
2023-02-07T01:07:06.408Z,-6.00
2023-02-07T01:10:29.774Z,-6.10
2023-02-07T01:13:04.896Z,-6.20
2023-02-07T01:19:22.040Z,-6.00
2023-02-07T01:20:05.264Z,-6.10
2023-02-07T01:21:59.092Z,-6.00
2023-02-07T01:25:40.963Z,-6.00
2023-02-07T01:27:50.585Z,-5.90
2023-02-07T01:33:14.487Z,-6.10
2023-02-07T01:35:51.261Z,-6.10
2023-02-07T01:38:52.518Z,-6.20
2023-02-07T01:44:31.741Z,-6.40
2023-02-07T01:47:16.284Z,-6.40
2023-02-07T01:50:12.772Z,-6.40
2023-02-07T01:52:51.727Z,-6.40
2023-02-07T01:55:54.735Z,-6.50
2023-02-07T01:58:57.425Z,-6.60
2023-02-07T02:01:28.872Z,-6.50
2023-02-07T02:04:24.666Z,-6.40
2023-02-07T02:07:34.289Z,-6.30
2023-02-07T02:10:24.773Z,-6.30
2023-02-07T02:13:30.540Z,-6.30
2023-02-07T02:16:52.692Z,-6.20
2023-02-07T02:20:11.287Z,-6.10
2023-02-07T02:26:10.354Z,-6.00
2023-02-07T02:29:11.462Z,-5.90
2023-02-07T02:32:22.166Z,-5.80
2023-02-07T02:35:09.127Z,-5.80
2023-02-07T02:38:08.100Z,-5.70
2023-02-07T02:41:28.990Z,-5.70
2023-02-07T02:44:25.408Z,-5.70
2023-02-07T02:47:18.694Z,-5.60
2023-02-07T02:50:54.298Z,-5.60
2023-02-07T02:53:31.017Z,-5.70
2023-02-07T02:57:00.357Z,-5.70
2023-02-07T03:03:16.070Z,-5.90
2023-02-07T03:06:17.971Z,-5.90
2023-02-07T03:09:16.168Z,-5.90
2023-02-07T03:12:17.860Z,-5.90
2023-02-07T03:15:02.953Z,-5.90
2023-02-07T03:18:32.464Z,-5.90
2023-02-07T03:21:20.785Z,-5.90
2023-02-07T03:23:55.220Z,-5.80
2023-02-07T03:43:51.200Z,-5.50
2023-02-07T03:46:38.069Z,-5.40
2023-02-07T03:53:06.513Z,-5.30
2023-02-07T03:57:14.744Z,-5.40
2023-02-07T03:59:01.152Z,-5.30
2023-02-07T04:04:57.026Z,-5.20
2023-02-07T04:07:24.882Z,-5.10
2023-02-07T04:09:51.712Z,-5.10
2023-02-07T04:12:18.551Z,-5.10
2023-02-07T04:14:45.297Z,-5.10
2023-02-07T04:17:12.036Z,-5.10
2023-02-07T06:02:13.145Z,-4.60
2023-02-07T06:04:39.930Z,-4.60
2023-02-07T06:07:07.852Z,-4.60
2023-02-07T06:09:35.853Z,-4.60
2023-02-07T06:12:05.229Z,-4.60
2023-02-07T06:14:32.115Z,-4.60
2023-02-07T06:16:59.038Z,-4.60
2023-02-07T06:19:25.745Z,-4.50
2023-02-07T06:21:52.470Z,-4.50
2023-02-07T06:24:19.365Z,-4.50
2023-02-07T06:26:46.809Z,-4.50
2023-02-07T06:29:14.358Z,-4.40
2023-02-07T06:31:41.085Z,-4.40
2023-02-07T06:34:07.928Z,-4.40
2023-02-07T06:36:34.689Z,-4.40
2023-02-07T06:39:01.563Z,-4.40
2023-02-07T06:41:28.286Z,-4.40
2023-02-07T06:43:55.019Z,-4.30
2023-02-07T06:46:21.842Z,-4.30
2023-02-07T06:48:48.553Z,-4.30
2023-02-07T06:51:15.349Z,-4.40
2023-02-07T06:53:42.082Z,-4.30
2023-02-07T06:56:08.827Z,-4.30
2023-02-07T06:58:35.610Z,-4.30
2023-02-07T07:01:03.028Z,-4.30
2023-02-07T07:03:29.859Z,-4.20
2023-02-07T07:05:57.563Z,-4.30
2023-02-07T07:08:25.153Z,-4.20
2023-02-07T07:10:52.002Z,-4.20
2023-02-07T07:13:18.925Z,-4.20
2023-02-07T07:15:45.632Z,-4.20
2023-02-07T07:18:12.598Z,-4.10
2023-02-07T07:20:39.314Z,-4.10
2023-02-07T07:23:06.026Z,-4.10
2023-02-07T07:25:32.743Z,-4.10
2023-02-07T07:27:59.539Z,-4.10
2023-02-07T07:30:26.723Z,-4.10
2023-02-07T07:32:53.421Z,-4.00
2023-02-07T07:35:20.557Z,-4.00
2023-02-07T07:37:47.284Z,-4.00
2023-02-07T07:40:14.183Z,-3.90
2023-02-07T07:42:41.198Z,-3.90
2023-02-07T07:45:08.335Z,-3.90
2023-02-07T07:47:35.111Z,-3.90
2023-02-07T07:50:01.806Z,-3.90
2023-02-07T07:52:28.497Z,-3.90
2023-02-07T07:54:55.206Z,-3.90
2023-02-07T07:57:22.170Z,-3.80
2023-02-07T07:59:48.879Z,-3.80
2023-02-07T08:02:15.644Z,-3.70
2023-02-07T08:04:42.546Z,-3.70
2023-02-07T08:07:09.303Z,-3.60
2023-02-07T08:09:36.045Z,-3.60
2023-02-07T08:12:02.946Z,-3.50
2023-02-07T08:14:29.776Z,-3.50
2023-02-07T08:16:56.449Z,-3.40
2023-02-07T08:19:23.525Z,-3.40
2023-02-07T08:21:50.653Z,-3.30
2023-02-07T08:24:17.364Z,-3.30
2023-02-07T08:26:44.139Z,-3.20
2023-02-07T08:29:11.507Z,-3.20
2023-02-07T08:31:38.658Z,-3.10
2023-02-07T08:34:05.935Z,-3.00
2023-02-07T08:36:32.698Z,-3.00
2023-02-07T08:38:59.694Z,-3.00
2023-02-07T08:41:26.442Z,-2.90
2023-02-07T08:43:53.103Z,-2.90
2023-02-07T08:46:19.949Z,-2.80
2023-02-07T08:48:46.647Z,-2.70
2023-02-07T08:51:13.510Z,-2.70
2023-02-07T08:53:40.197Z,-2.60
2023-02-07T08:56:08.736Z,-2.60
2023-02-07T08:58:35.583Z,-2.60
2023-02-07T09:01:02.418Z,-2.50
2023-02-07T09:03:29.183Z,-2.50
2023-02-07T09:05:59.830Z,-2.40
2023-02-07T09:08:26.553Z,-2.40
2023-02-07T09:10:53.389Z,-2.30
2023-02-07T09:13:20.121Z,-2.30
2023-02-07T09:15:52.555Z,-2.30
2023-02-07T09:18:19.241Z,-2.20
2023-02-07T09:20:45.949Z,-2.20
2023-02-07T09:23:19.364Z,-2.20
2023-02-07T09:25:48.078Z,-2.20
2023-02-07T09:28:15.300Z,-2.20
2023-02-07T09:30:43.399Z,-2.20
2023-02-07T09:33:11.723Z,-2.20
2023-02-07T09:35:40.085Z,-2.20
2023-02-07T09:38:09.595Z,-2.10
2023-02-07T09:40:36.904Z,-2.00
2023-02-07T09:43:36.493Z,-2.00
2023-02-07T09:46:20.970Z,-1.90
2023-02-07T09:48:55.372Z,-1.90
2023-02-07T09:51:23.807Z,-1.80
2023-02-07T09:53:59.758Z,-1.80
2023-02-07T09:56:29.577Z,-1.80
2023-02-07T09:59:26.320Z,-1.70
2023-02-07T10:02:01.247Z,-1.80
2023-02-07T10:04:36.836Z,-1.80
2023-02-07T10:07:07.493Z,-1.80
2023-02-07T10:09:38.039Z,-1.80
2023-02-07T10:12:25.540Z,-1.80
2023-02-07T10:15:14.069Z,-1.80
2023-02-07T10:18:01.991Z,-1.80
2023-02-07T10:20:40.041Z,-1.80
2023-02-07T10:23:14.907Z,-1.70
2023-02-07T10:25:41.610Z,-1.60
2023-02-07T10:28:14.458Z,-1.60
2023-02-07T10:30:57.429Z,-1.60
2023-02-07T10:33:34.212Z,-1.60
2023-02-07T10:36:04.601Z,-1.50
2023-02-07T10:38:41.948Z,-1.40
2023-02-07T10:41:31.528Z,-1.40
2023-02-07T10:43:58.323Z,-1.40
2023-02-07T10:46:25.270Z,-1.30
2023-02-07T10:52:31.841Z,-1.20
2023-02-07T10:56:32.599Z,-1.20
2023-02-07T10:59:50.840Z,-1.20
2023-02-07T11:03:13.660Z,-1.20
2023-02-07T11:14:12.016Z,-1.10
2023-02-07T11:17:31.027Z,-1.00
2023-02-07T11:20:21.913Z,-0.70
2023-02-07T11:26:41.867Z,-0.70
2023-02-07T11:36:19.831Z,-0.60
2023-02-07T11:39:28.012Z,-0.40
2023-02-07T11:43:10.407Z,-0.20
2023-02-07T11:46:41.583Z,-0.20
2023-02-07T11:49:54.684Z,-0.30
2023-02-07T11:52:58.401Z,-0.20
2023-02-07T12:12:08.173Z,-0.20
2023-02-07T12:27:25.690Z,-0.40
2023-02-07T12:38:04.175Z,-0.40
2023-02-07T12:45:09.254Z,-0.40
2023-02-07T12:48:41.478Z,-0.40
2023-02-07T12:55:36.754Z,-0.30
2023-02-07T13:02:03.674Z,-0.40
2023-02-07T13:12:07.768Z,-0.30
2023-02-07T13:25:04.005Z,-0.30
2023-02-07T13:28:52.301Z,-0.30
2023-02-07T13:32:12.786Z,-0.30
2023-02-07T13:38:13.280Z,-0.30
2023-02-07T13:41:54.931Z,-0.40
2023-02-07T13:49:04.221Z,-0.40
2023-02-07T13:51:48.700Z,-0.40
2023-02-07T13:54:52.128Z,-0.40
2023-02-07T14:06:00.899Z,-0.40
2023-02-07T14:09:06.512Z,-0.40
2023-02-07T14:16:27.188Z,-0.50
2023-02-07T14:28:46.352Z,-0.60
2023-02-07T14:34:36.483Z,-0.50
2023-02-07T14:37:51.647Z,-0.50
2023-02-07T14:41:01.796Z,-0.60
2023-02-07T14:44:27.560Z,-0.50
2023-02-07T14:47:39.324Z,-0.50
2023-02-07T14:53:55.398Z,-0.60
2023-02-07T14:57:56.397Z,-0.60
2023-02-07T15:00:44.946Z,-0.60
2023-02-07T15:03:29.150Z,-0.60
2023-02-07T15:06:40.505Z,-0.60
2023-02-07T15:15:39.477Z,-0.60
2023-02-07T15:18:19.216Z,-0.60
2023-02-07T15:22:59.068Z,-0.60
2023-02-07T15:24:59.876Z,-0.70
2023-02-07T15:27:48.078Z,-0.70
2023-02-07T15:31:56.563Z,-0.70
2023-02-07T15:34:40.016Z,-0.70
2023-02-07T15:41:09.567Z,-0.70
2023-02-07T15:47:25.814Z,-0.70
2023-02-07T15:49:58.152Z,-0.70
2023-02-07T15:52:54.803Z,-0.70
2023-02-07T15:55:44.381Z,-0.80
2023-02-07T15:58:27.249Z,-0.80
2023-02-07T16:01:02.872Z,-0.80
2023-02-07T16:03:49.491Z,-0.80
2023-02-07T16:06:28.010Z,-0.80
2023-02-07T16:09:01.005Z,-0.80
2023-02-07T16:11:30.086Z,-0.80
2023-02-07T16:14:17.174Z,-0.80
2023-02-07T16:16:53.465Z,-0.70
2023-02-07T16:19:29.873Z,-0.80
2023-02-07T16:22:13.356Z,-0.70
2023-02-07T16:24:44.713Z,-0.80
2023-02-07T16:27:59.552Z,-0.70
2023-02-07T16:30:41.959Z,-0.70
2023-02-07T16:33:16.796Z,-0.70
2023-02-07T16:35:43.664Z,-0.70
2023-02-07T16:38:10.383Z,-0.80
2023-02-07T16:40:37.621Z,-0.70
2023-02-07T16:43:07.302Z,-0.70
2023-02-07T16:45:39.112Z,-0.80
2023-02-07T16:48:15.778Z,-0.80
2023-02-07T16:50:43.013Z,-0.80
2023-02-07T16:53:09.737Z,-0.80
2023-02-07T16:55:39.121Z,-0.80
2023-02-07T16:58:08.448Z,-0.80
2023-02-07T17:00:35.336Z,-0.80
2023-02-07T17:03:02.025Z,-0.80
2023-02-07T17:05:28.791Z,-0.80
2023-02-07T17:07:55.491Z,-0.80
2023-02-07T17:10:30.853Z,-0.90
2023-02-07T17:12:59.428Z,-0.80
2023-02-07T17:15:26.117Z,-0.80
2023-02-07T17:17:53.855Z,-0.80
2023-02-07T17:20:27.001Z,-0.90
2023-02-07T17:22:55.103Z,-0.80
2023-02-07T17:25:23.999Z,-0.80
2023-02-07T17:27:51.435Z,-0.90
2023-02-07T17:30:21.802Z,-0.90
2023-02-07T17:32:49.847Z,-0.90
2023-02-07T17:35:18.192Z,-0.90
2023-02-07T17:37:44.981Z,-0.90
2023-02-07T17:40:38.079Z,-0.90
2023-02-07T17:43:06.902Z,-0.90
2023-02-07T17:45:36.092Z,-0.90
2023-02-07T17:48:03.954Z,-0.90
2023-02-07T17:50:35.436Z,-0.90
2023-02-07T17:53:03.030Z,-0.90
2023-02-07T17:55:31.483Z,-1.00
2023-02-07T17:57:59.034Z,-1.00
2023-02-07T18:00:27.828Z,-1.00
2023-02-07T18:02:54.715Z,-0.90
2023-02-07T18:05:22.618Z,-0.90
2023-02-07T18:07:50.834Z,-1.00
2023-02-07T18:10:24.175Z,-1.00
2023-02-07T18:12:51.833Z,-1.00
2023-02-07T18:15:19.535Z,-1.00
2023-02-07T18:17:48.172Z,-1.00
2023-02-07T18:20:22.553Z,-1.00
2023-02-07T18:22:50.852Z,-1.00
2023-02-07T18:25:18.076Z,-1.00
2023-02-07T18:27:49.167Z,-1.10
2023-02-07T18:30:16.920Z,-1.10
2023-02-07T18:32:43.693Z,-1.10
2023-02-07T18:35:10.789Z,-1.10
2023-02-07T18:37:38.053Z,-1.10
2023-02-07T18:40:06.939Z,-1.10
2023-02-07T18:42:33.769Z,-1.10
2023-02-07T18:45:00.540Z,-1.10
2023-02-07T18:47:27.334Z,-1.10
2023-02-07T18:49:54.082Z,-1.10
2023-02-07T18:52:20.862Z,-1.10
2023-02-07T18:54:47.659Z,-1.10
2023-02-07T18:57:14.379Z,-1.10
2023-02-07T18:59:41.199Z,-1.10
2023-02-07T19:02:08.216Z,-1.10
2023-02-07T19:04:35.291Z,-1.10
2023-02-07T19:07:02.207Z,-1.10
2023-02-07T19:09:29.020Z,-1.00
2023-02-07T19:11:57.645Z,-1.00
2023-02-07T19:14:31.096Z,-1.10
2023-02-07T19:16:58.888Z,-1.00
2023-02-07T19:19:28.746Z,-1.00
2023-02-07T19:21:56.234Z,-1.00
2023-02-07T19:24:23.919Z,-1.00
2023-02-07T19:26:57.265Z,-1.00
2023-02-07T19:29:30.149Z,-1.10
2023-02-07T19:32:08.251Z,-1.10
2023-02-07T19:34:43.560Z,-1.00
2023-02-07T19:37:38.645Z,-1.10
2023-02-07T19:40:09.548Z,-1.10
2023-02-07T19:42:42.152Z,-1.10
2023-02-07T19:45:09.235Z,-1.00
2023-02-07T19:47:35.946Z,-1.00
2023-02-07T19:50:02.679Z,-1.10
2023-02-07T19:52:29.429Z,-1.10
2023-02-07T19:54:56.812Z,-1.10
2023-02-07T19:57:23.637Z,-1.10
2023-02-07T19:59:51.060Z,-1.10
2023-02-07T20:02:17.952Z,-1.00
2023-02-07T20:04:44.749Z,-1.10
2023-02-07T20:07:16.120Z,-1.10
2023-02-07T20:09:42.965Z,-1.10
2023-02-07T20:12:09.745Z,-1.10
2023-02-07T20:14:37.937Z,-1.10
2023-02-07T20:17:06.060Z,-1.10
2023-02-07T20:19:34.048Z,-1.10
2023-02-07T20:22:22.561Z,-1.10
2023-02-07T20:24:50.483Z,-1.10
2023-02-07T20:32:04.227Z,-1.10
2023-02-07T20:35:22.642Z,-1.10
2023-02-07T20:37:59.010Z,-1.10
2023-02-07T20:40:27.039Z,-1.20
2023-02-07T20:44:17.212Z,-1.10
2023-02-07T20:46:36.487Z,-1.10
2023-02-07T20:49:07.047Z,-1.10
2023-02-07T20:51:40.389Z,-1.10
2023-02-07T20:54:10.363Z,-1.10
2023-02-07T20:56:40.211Z,-1.10
2023-02-07T20:59:15.174Z,-1.10
2023-02-07T21:01:42.090Z,-1.20
2023-02-07T21:04:08.807Z,-1.10
2023-02-07T21:06:36.246Z,-1.10
2023-02-07T21:09:12.400Z,-1.10
2023-02-07T21:11:45.250Z,-1.10
2023-02-07T21:14:30.151Z,-1.10
2023-02-07T21:17:01.249Z,-1.10
2023-02-07T21:19:28.528Z,-1.10
2023-02-07T21:21:55.640Z,-1.10
2023-02-07T21:24:23.213Z,-1.20
2023-02-07T21:26:55.074Z,-1.20
2023-02-07T21:29:22.655Z,-1.20
2023-02-07T21:31:50.365Z,-1.20
2023-02-07T21:34:20.975Z,-1.20
2023-02-07T21:36:49.255Z,-1.20
2023-02-07T21:39:16.870Z,-1.20
2023-02-07T21:41:45.421Z,-1.20
2023-02-07T21:44:13.362Z,-1.20
2023-02-07T21:46:42.785Z,-1.20
2023-02-07T21:49:14.674Z,-1.20
2023-02-07T21:51:42.383Z,-1.20
2023-02-07T21:54:09.269Z,-1.20
2023-02-07T21:56:38.497Z,-1.20
2023-02-07T21:59:08.687Z,-1.20
2023-02-07T22:01:36.650Z,-1.20
2023-02-07T22:04:05.754Z,-1.20
2023-02-07T22:06:33.240Z,-1.20
2023-02-07T22:09:02.318Z,-1.20
2023-02-07T22:11:31.500Z,-1.20
2023-02-07T22:13:58.709Z,-1.20
2023-02-07T22:16:26.597Z,-1.20
2023-02-07T22:18:55.004Z,-1.30
2023-02-07T22:21:25.353Z,-1.20
2023-02-07T22:23:52.898Z,-1.20
2023-02-07T22:26:19.812Z,-1.30
2023-02-07T22:28:47.537Z,-1.30
2023-02-07T22:31:19.236Z,-1.20
2023-02-07T22:33:47.294Z,-1.20
2023-02-07T22:36:16.255Z,-1.20
2023-02-07T22:38:43.275Z,-1.20
2023-02-07T22:41:10.257Z,-1.20
2023-02-07T22:43:38.643Z,-1.20
2023-02-07T22:46:06.978Z,-1.20
2023-02-07T22:48:34.172Z,-1.20
2023-02-07T22:51:11.485Z,-1.20
2023-02-07T22:53:38.219Z,-1.20
2023-02-07T22:56:05.358Z,-1.20
2023-02-07T22:58:32.274Z,-1.20
2023-02-07T23:00:58.958Z,-1.20
2023-02-07T23:03:25.702Z,-1.20
2023-02-07T23:05:52.463Z,-1.20
2023-02-07T23:08:19.236Z,-1.20
2023-02-07T23:10:47.408Z,-1.20
2023-02-07T23:13:14.408Z,-1.10
2023-02-07T23:15:48.025Z,-1.10
2023-02-07T23:18:15.691Z,-1.10
2023-02-07T23:20:44.412Z,-1.10
2023-02-07T23:23:12.623Z,-1.10
2023-02-07T23:25:46.158Z,-1.20
2023-02-07T23:28:13.933Z,-1.20
2023-02-07T23:30:42.051Z,-1.20
2023-02-07T23:33:10.182Z,-1.10
2023-02-07T23:35:37.167Z,-1.10
2023-02-07T23:38:04.152Z,-1.10
2023-02-07T23:40:31.055Z,-1.10
2023-02-07T23:42:57.813Z,-1.10
2023-02-07T23:45:25.382Z,-1.10
2023-02-07T23:47:52.315Z,-1.10
2023-02-07T23:50:19.093Z,-1.10
2023-02-07T23:52:46.079Z,-1.10
2023-02-07T23:55:13.235Z,-1.20
2023-02-07T23:57:40.304Z,-1.10
